sensor_id;sensor_type;location;lat;lon;timestamp;P1;durP1;ratioP1;P2;durP2;ratioP2
22660;SDS011;11497;52.222;21.246;2023-10-08T00:01:10;12.60;;;4.45;;
22660;SDS011;11497;52.222;21.246;2023-10-08T00:03:39;15.48;;;5.47;;
22660;SDS011;11497;52.222;21.246;2023-10-08T00:06:08;8.63;;;3.63;;
22660;SDS011;11497;52.222;21.246;2023-10-08T00:08:39;13.60;;;4.05;;
22660;SDS011;11497;52.222;21.246;2023-10-08T00:11:08;10.10;;;4.20;;
22660;SDS011;11497;52.222;21.246;2023-10-08T00:13:37;10.88;;;4.40;;
22660;SDS011;11497;52.222;21.246;2023-10-08T00:16:09;9.73;;;4.00;;
22660;SDS011;11497;52.222;21.246;2023-10-08T00:18:37;12.85;;;4.90;;
22660;SDS011;11497;52.222;21.246;2023-10-08T00:21:08;10.82;;;3.85;;
22660;SDS011;11497;52.222;21.246;2023-10-08T00:23:39;13.40;;;4.45;;
22660;SDS011;11497;52.222;21.246;2023-10-08T00:26:09;10.30;;;5.07;;
22660;SDS011;11497;52.222;21.246;2023-10-08T00:28:37;7.80;;;4.10;;
22660;SDS011;11497;52.222;21.246;2023-10-08T00:31:07;11.85;;;4.10;;
22660;SDS011;11497;52.222;21.246;2023-10-08T00:33:39;8.48;;;4.43;;
22660;SDS011;11497;52.222;21.246;2023-10-08T00:36:08;11.15;;;4.15;;
22660;SDS011;11497;52.222;21.246;2023-10-08T00:38:46;12.48;;;4.65;;
22660;SDS011;11497;52.222;21.246;2023-10-08T00:41:19;13.45;;;4.75;;
22660;SDS011;11497;52.222;21.246;2023-10-08T00:43:54;12.98;;;5.22;;
22660;SDS011;11497;52.222;21.246;2023-10-08T00:46:33;19.65;;;5.38;;
22660;SDS011;11497;52.222;21.246;2023-10-08T00:49:09;16.98;;;5.85;;
22660;SDS011;11497;52.222;21.246;2023-10-08T00:51:50;13.32;;;5.10;;
22660;SDS011;11497;52.222;21.246;2023-10-08T00:54:47;12.45;;;4.88;;
22660;SDS011;11497;52.222;21.246;2023-10-08T00:57:33;12.55;;;6.28;;
22660;SDS011;11497;52.222;21.246;2023-10-08T01:00:05;15.73;;;5.50;;
22660;SDS011;11497;52.222;21.246;2023-10-08T01:02:42;12.48;;;5.50;;
22660;SDS011;11497;52.222;21.246;2023-10-08T01:05:14;14.30;;;5.75;;
22660;SDS011;11497;52.222;21.246;2023-10-08T01:07:50;19.58;;;6.00;;
22660;SDS011;11497;52.222;21.246;2023-10-08T01:10:19;15.85;;;6.32;;
22660;SDS011;11497;52.222;21.246;2023-10-08T01:12:47;19.15;;;6.07;;
22660;SDS011;11497;52.222;21.246;2023-10-08T01:15:21;9.25;;;5.82;;
22660;SDS011;11497;52.222;21.246;2023-10-08T01:17:56;15.77;;;5.90;;
22660;SDS011;11497;52.222;21.246;2023-10-08T01:20:28;18.25;;;6.43;;
22660;SDS011;11497;52.222;21.246;2023-10-08T01:23:10;16.00;;;6.20;;
22660;SDS011;11497;52.222;21.246;2023-10-08T01:25:40;17.55;;;6.13;;
22660;SDS011;11497;52.222;21.246;2023-10-08T01:28:20;17.67;;;6.35;;
22660;SDS011;11497;52.222;21.246;2023-10-08T01:30:57;16.98;;;5.93;;
22660;SDS011;11497;52.222;21.246;2023-10-08T01:33:27;18.15;;;6.40;;
22660;SDS011;11497;52.222;21.246;2023-10-08T01:35:58;14.95;;;6.60;;
22660;SDS011;11497;52.222;21.246;2023-10-08T01:38:32;16.23;;;6.57;;
22660;SDS011;11497;52.222;21.246;2023-10-08T01:41:00;18.00;;;7.28;;
22660;SDS011;11497;52.222;21.246;2023-10-08T01:43:32;13.20;;;6.28;;
22660;SDS011;11497;52.222;21.246;2023-10-08T01:46:02;15.48;;;5.80;;
22660;SDS011;11497;52.222;21.246;2023-10-08T01:48:30;20.55;;;6.05;;
22660;SDS011;11497;52.222;21.246;2023-10-08T01:51:04;19.02;;;6.32;;
22660;SDS011;11497;52.222;21.246;2023-10-08T01:53:38;20.73;;;6.78;;
22660;SDS011;11497;52.222;21.246;2023-10-08T01:56:06;19.63;;;6.50;;
22660;SDS011;11497;52.222;21.246;2023-10-08T01:58:34;13.90;;;6.40;;
22660;SDS011;11497;52.222;21.246;2023-10-08T02:01:02;18.98;;;6.93;;
22660;SDS011;11497;52.222;21.246;2023-10-08T02:03:32;19.83;;;6.38;;
22660;SDS011;11497;52.222;21.246;2023-10-08T02:06:01;13.45;;;5.95;;
22660;SDS011;11497;52.222;21.246;2023-10-08T02:08:33;16.00;;;6.38;;
22660;SDS011;11497;52.222;21.246;2023-10-08T02:11:01;18.65;;;6.53;;
22660;SDS011;11497;52.222;21.246;2023-10-08T02:13:29;15.55;;;6.30;;
22660;SDS011;11497;52.222;21.246;2023-10-08T02:15:57;18.35;;;6.25;;
22660;SDS011;11497;52.222;21.246;2023-10-08T02:18:25;17.23;;;5.75;;
22660;SDS011;11497;52.222;21.246;2023-10-08T02:20:54;14.70;;;5.65;;
22660;SDS011;11497;52.222;21.246;2023-10-08T02:23:22;18.10;;;6.15;;
22660;SDS011;11497;52.222;21.246;2023-10-08T02:25:49;16.23;;;5.90;;
22660;SDS011;11497;52.222;21.246;2023-10-08T02:28:17;18.88;;;5.55;;
22660;SDS011;11497;52.222;21.246;2023-10-08T02:30:47;14.90;;;5.50;;
22660;SDS011;11497;52.222;21.246;2023-10-08T02:33:15;17.65;;;5.85;;
22660;SDS011;11497;52.222;21.246;2023-10-08T02:35:44;14.38;;;5.68;;
22660;SDS011;11497;52.222;21.246;2023-10-08T02:38:14;15.85;;;5.78;;
22660;SDS011;11497;52.222;21.246;2023-10-08T02:40:45;12.77;;;4.85;;
22660;SDS011;11497;52.222;21.246;2023-10-08T02:43:15;13.48;;;5.78;;
22660;SDS011;11497;52.222;21.246;2023-10-08T02:45:44;17.02;;;5.20;;
22660;SDS011;11497;52.222;21.246;2023-10-08T02:48:17;11.55;;;4.85;;
22660;SDS011;11497;52.222;21.246;2023-10-08T02:50:47;14.20;;;4.15;;
22660;SDS011;11497;52.222;21.246;2023-10-08T02:53:15;11.90;;;4.90;;
22660;SDS011;11497;52.222;21.246;2023-10-08T02:55:48;14.73;;;5.00;;
22660;SDS011;11497;52.222;21.246;2023-10-08T02:58:17;11.05;;;4.75;;
22660;SDS011;11497;52.222;21.246;2023-10-08T03:00:48;14.75;;;4.97;;
22660;SDS011;11497;52.222;21.246;2023-10-08T03:03:16;13.77;;;5.30;;
22660;SDS011;11497;52.222;21.246;2023-10-08T03:05:50;12.45;;;5.05;;
22660;SDS011;11497;52.222;21.246;2023-10-08T03:08:19;8.93;;;4.32;;
22660;SDS011;11497;52.222;21.246;2023-10-08T03:10:48;10.05;;;4.75;;
22660;SDS011;11497;52.222;21.246;2023-10-08T03:13:17;11.82;;;4.80;;
22660;SDS011;11497;52.222;21.246;2023-10-08T03:15:46;12.40;;;4.13;;
22660;SDS011;11497;52.222;21.246;2023-10-08T03:18:34;12.45;;;4.10;;
22660;SDS011;11497;52.222;21.246;2023-10-08T03:21:10;9.70;;;4.32;;
22660;SDS011;11497;52.222;21.246;2023-10-08T03:23:51;10.45;;;3.90;;
22660;SDS011;11497;52.222;21.246;2023-10-08T03:26:23;7.85;;;3.53;;
22660;SDS011;11497;52.222;21.246;2023-10-08T03:29:01;9.27;;;3.88;;
22660;SDS011;11497;52.222;21.246;2023-10-08T03:31:34;9.38;;;2.97;;
22660;SDS011;11497;52.222;21.246;2023-10-08T03:36:47;7.75;;;3.13;;
22660;SDS011;11497;52.222;21.246;2023-10-08T03:39:17;4.90;;;2.63;;
22660;SDS011;11497;52.222;21.246;2023-10-08T03:41:46;6.47;;;2.78;;
22660;SDS011;11497;52.222;21.246;2023-10-08T03:44:33;5.93;;;2.03;;
22660;SDS011;11497;52.222;21.246;2023-10-08T03:47:04;6.25;;;2.35;;
22660;SDS011;11497;52.222;21.246;2023-10-08T03:52:12;6.57;;;2.33;;
22660;SDS011;11497;52.222;21.246;2023-10-08T03:54:40;8.75;;;2.58;;
22660;SDS011;11497;52.222;21.246;2023-10-08T03:57:15;3.63;;;2.22;;
22660;SDS011;11497;52.222;21.246;2023-10-08T03:59:52;5.40;;;1.73;;
22660;SDS011;11497;52.222;21.246;2023-10-08T04:02:26;6.78;;;2.08;;
22660;SDS011;11497;52.222;21.246;2023-10-08T04:05:07;5.70;;;2.45;;
22660;SDS011;11497;52.222;21.246;2023-10-08T04:07:50;4.93;;;1.90;;
22660;SDS011;11497;52.222;21.246;2023-10-08T04:10:27;5.13;;;1.90;;
22660;SDS011;11497;52.222;21.246;2023-10-08T04:13:16;4.82;;;1.80;;
22660;SDS011;11497;52.222;21.246;2023-10-08T04:15:44;6.00;;;2.35;;
22660;SDS011;11497;52.222;21.246;2023-10-08T04:18:11;2.88;;;1.63;;
22660;SDS011;11497;52.222;21.246;2023-10-08T04:20:40;3.13;;;1.75;;
22660;SDS011;11497;52.222;21.246;2023-10-08T04:23:27;5.13;;;2.13;;
22660;SDS011;11497;52.222;21.246;2023-10-08T04:25:56;3.65;;;2.00;;
22660;SDS011;11497;52.222;21.246;2023-10-08T04:28:25;7.18;;;2.15;;
22660;SDS011;11497;52.222;21.246;2023-10-08T04:31:01;3.80;;;1.90;;
22660;SDS011;11497;52.222;21.246;2023-10-08T04:33:41;4.25;;;1.70;;
22660;SDS011;11497;52.222;21.246;2023-10-08T04:36:10;4.63;;;1.90;;
22660;SDS011;11497;52.222;21.246;2023-10-08T04:38:45;4.45;;;2.00;;
22660;SDS011;11497;52.222;21.246;2023-10-08T04:41:15;2.67;;;1.55;;
22660;SDS011;11497;52.222;21.246;2023-10-08T04:43:46;4.32;;;1.65;;
22660;SDS011;11497;52.222;21.246;2023-10-08T04:46:16;3.03;;;1.92;;
22660;SDS011;11497;52.222;21.246;2023-10-08T04:49:07;3.90;;;2.00;;
22660;SDS011;11497;52.222;21.246;2023-10-08T04:51:46;2.97;;;1.55;;
22660;SDS011;11497;52.222;21.246;2023-10-08T04:54:15;4.65;;;2.35;;
22660;SDS011;11497;52.222;21.246;2023-10-08T04:56:43;2.95;;;1.60;;
22660;SDS011;11497;52.222;21.246;2023-10-08T04:59:11;3.70;;;1.80;;
22660;SDS011;11497;52.222;21.246;2023-10-08T05:01:40;2.17;;;1.70;;
22660;SDS011;11497;52.222;21.246;2023-10-08T05:04:14;3.17;;;1.50;;
22660;SDS011;11497;52.222;21.246;2023-10-08T05:06:58;2.60;;;1.77;;
22660;SDS011;11497;52.222;21.246;2023-10-08T05:09:45;3.47;;;1.80;;
22660;SDS011;11497;52.222;21.246;2023-10-08T05:12:19;1.85;;;1.50;;
22660;SDS011;11497;52.222;21.246;2023-10-08T05:15:01;1.52;;;1.35;;
22660;SDS011;11497;52.222;21.246;2023-10-08T05:20:23;2.90;;;1.55;;
22660;SDS011;11497;52.222;21.246;2023-10-08T05:23:10;2.42;;;1.58;;
22660;SDS011;11497;52.222;21.246;2023-10-08T05:26:07;4.05;;;1.55;;
22660;SDS011;11497;52.222;21.246;2023-10-08T05:28:37;3.53;;;1.40;;
22660;SDS011;11497;52.222;21.246;2023-10-08T05:31:23;6.53;;;1.70;;
22660;SDS011;11497;52.222;21.246;2023-10-08T05:34:14;4.32;;;1.58;;
22660;SDS011;11497;52.222;21.246;2023-10-08T05:36:44;3.03;;;1.38;;
22660;SDS011;11497;52.222;21.246;2023-10-08T05:39:28;5.53;;;1.75;;
22660;SDS011;11497;52.222;21.246;2023-10-08T05:42:21;3.25;;;1.58;;
22660;SDS011;11497;52.222;21.246;2023-10-08T05:44:54;4.05;;;1.60;;
22660;SDS011;11497;52.222;21.246;2023-10-08T05:47:52;2.78;;;1.60;;
22660;SDS011;11497;52.222;21.246;2023-10-08T05:50:40;3.08;;;1.40;;
22660;SDS011;11497;52.222;21.246;2023-10-08T05:56:11;2.20;;;1.50;;
22660;SDS011;11497;52.222;21.246;2023-10-08T05:58:56;1.90;;;1.15;;
22660;SDS011;11497;52.222;21.246;2023-10-08T06:01:44;4.05;;;1.35;;
22660;SDS011;11497;52.222;21.246;2023-10-08T06:04:13;2.97;;;1.33;;
22660;SDS011;11497;52.222;21.246;2023-10-08T06:06:59;2.67;;;1.35;;
22660;SDS011;11497;52.222;21.246;2023-10-08T06:09:43;2.45;;;1.15;;
22660;SDS011;11497;52.222;21.246;2023-10-08T06:12:28;3.42;;;1.50;;
22660;SDS011;11497;52.222;21.246;2023-10-08T06:15:11;2.00;;;1.23;;
22660;SDS011;11497;52.222;21.246;2023-10-08T06:17:39;2.33;;;1.33;;
22660;SDS011;11497;52.222;21.246;2023-10-08T06:20:25;2.38;;;1.35;;
22660;SDS011;11497;52.222;21.246;2023-10-08T06:22:54;2.22;;;1.27;;
22660;SDS011;11497;52.222;21.246;2023-10-08T06:25:28;1.95;;;1.30;;
22660;SDS011;11497;52.222;21.246;2023-10-08T06:27:57;1.77;;;1.20;;
22660;SDS011;11497;52.222;21.246;2023-10-08T06:30:24;2.45;;;1.30;;
22660;SDS011;11497;52.222;21.246;2023-10-08T06:33:02;6.50;;;1.45;;
22660;SDS011;11497;52.222;21.246;2023-10-08T06:35:30;1.55;;;1.30;;
22660;SDS011;11497;52.222;21.246;2023-10-08T06:38:00;3.72;;;1.58;;
22660;SDS011;11497;52.222;21.246;2023-10-08T06:40:28;1.98;;;1.38;;
22660;SDS011;11497;52.222;21.246;2023-10-08T06:43:05;6.68;;;1.73;;
22660;SDS011;11497;52.222;21.246;2023-10-08T06:45:41;3.60;;;1.70;;
22660;SDS011;11497;52.222;21.246;2023-10-08T06:48:14;2.45;;;1.30;;
22660;SDS011;11497;52.222;21.246;2023-10-08T06:50:46;2.78;;;1.40;;
22660;SDS011;11497;52.222;21.246;2023-10-08T06:53:14;3.10;;;1.35;;
22660;SDS011;11497;52.222;21.246;2023-10-08T06:55:41;2.90;;;1.30;;
22660;SDS011;11497;52.222;21.246;2023-10-08T06:58:10;2.00;;;1.40;;
22660;SDS011;11497;52.222;21.246;2023-10-08T07:00:38;2.55;;;1.30;;
22660;SDS011;11497;52.222;21.246;2023-10-08T07:03:07;2.28;;;1.55;;
22660;SDS011;11497;52.222;21.246;2023-10-08T07:05:37;2.75;;;1.30;;
22660;SDS011;11497;52.222;21.246;2023-10-08T07:08:08;2.35;;;1.38;;
22660;SDS011;11497;52.222;21.246;2023-10-08T07:10:39;1.35;;;1.10;;
22660;SDS011;11497;52.222;21.246;2023-10-08T07:13:12;2.95;;;1.33;;
22660;SDS011;11497;52.222;21.246;2023-10-08T07:15:44;2.50;;;1.30;;
22660;SDS011;11497;52.222;21.246;2023-10-08T07:18:12;4.97;;;1.10;;
22660;SDS011;11497;52.222;21.246;2023-10-08T07:20:45;1.88;;;1.25;;
22660;SDS011;11497;52.222;21.246;2023-10-08T07:23:20;1.95;;;1.20;;
22660;SDS011;11497;52.222;21.246;2023-10-08T07:25:52;3.90;;;1.40;;
22660;SDS011;11497;52.222;21.246;2023-10-08T07:28:24;3.03;;;1.38;;
22660;SDS011;11497;52.222;21.246;2023-10-08T07:30:53;2.45;;;1.25;;
22660;SDS011;11497;52.222;21.246;2023-10-08T07:33:22;2.90;;;1.10;;
22660;SDS011;11497;52.222;21.246;2023-10-08T07:35:51;3.60;;;1.30;;
22660;SDS011;11497;52.222;21.246;2023-10-08T07:38:27;2.72;;;1.20;;
22660;SDS011;11497;52.222;21.246;2023-10-08T07:40:55;4.03;;;1.33;;
22660;SDS011;11497;52.222;21.246;2023-10-08T07:43:23;2.58;;;1.10;;
22660;SDS011;11497;52.222;21.246;2023-10-08T07:45:51;1.25;;;1.10;;
22660;SDS011;11497;52.222;21.246;2023-10-08T07:48:20;1.25;;;0.93;;
22660;SDS011;11497;52.222;21.246;2023-10-08T07:50:56;3.20;;;1.10;;
22660;SDS011;11497;52.222;21.246;2023-10-08T07:53:24;1.60;;;1.00;;
22660;SDS011;11497;52.222;21.246;2023-10-08T07:56:04;1.60;;;1.10;;
22660;SDS011;11497;52.222;21.246;2023-10-08T07:58:35;1.63;;;1.10;;
22660;SDS011;11497;52.222;21.246;2023-10-08T08:01:04;1.10;;;0.93;;
22660;SDS011;11497;52.222;21.246;2023-10-08T08:03:33;1.50;;;0.98;;
22660;SDS011;11497;52.222;21.246;2023-10-08T08:06:04;4.45;;;1.10;;
22660;SDS011;11497;52.222;21.246;2023-10-08T08:08:36;1.60;;;1.13;;
22660;SDS011;11497;52.222;21.246;2023-10-08T08:11:08;2.65;;;1.05;;
22660;SDS011;11497;52.222;21.246;2023-10-08T08:13:39;1.83;;;0.90;;
22660;SDS011;11497;52.222;21.246;2023-10-08T08:16:10;1.90;;;1.00;;
22660;SDS011;11497;52.222;21.246;2023-10-08T08:18:46;2.20;;;0.98;;
22660;SDS011;11497;52.222;21.246;2023-10-08T08:21:15;1.17;;;0.88;;
22660;SDS011;11497;52.222;21.246;2023-10-08T08:23:44;1.23;;;0.90;;
22660;SDS011;11497;52.222;21.246;2023-10-08T08:26:16;3.22;;;1.00;;
22660;SDS011;11497;52.222;21.246;2023-10-08T08:28:56;2.40;;;1.10;;
22660;SDS011;11497;52.222;21.246;2023-10-08T08:31:27;1.20;;;0.97;;
22660;SDS011;11497;52.222;21.246;2023-10-08T08:33:58;1.25;;;0.95;;
22660;SDS011;11497;52.222;21.246;2023-10-08T08:36:30;2.95;;;1.23;;
22660;SDS011;11497;52.222;21.246;2023-10-08T08:39:01;1.50;;;0.80;;
22660;SDS011;11497;52.222;21.246;2023-10-08T08:41:31;2.55;;;0.90;;
22660;SDS011;11497;52.222;21.246;2023-10-08T08:44:02;3.60;;;1.08;;
22660;SDS011;11497;52.222;21.246;2023-10-08T08:46:34;1.80;;;1.00;;
22660;SDS011;11497;52.222;21.246;2023-10-08T08:49:03;3.53;;;1.20;;
22660;SDS011;11497;52.222;21.246;2023-10-08T08:51:31;1.15;;;0.80;;
22660;SDS011;11497;52.222;21.246;2023-10-08T08:54:00;2.38;;;1.00;;
22660;SDS011;11497;52.222;21.246;2023-10-08T08:56:34;2.70;;;1.00;;
22660;SDS011;11497;52.222;21.246;2023-10-08T08:59:04;1.73;;;0.90;;
22660;SDS011;11497;52.222;21.246;2023-10-08T09:01:32;2.22;;;1.33;;
22660;SDS011;11497;52.222;21.246;2023-10-08T09:04:00;1.75;;;1.05;;
22660;SDS011;11497;52.222;21.246;2023-10-08T09:06:28;2.20;;;0.90;;
22660;SDS011;11497;52.222;21.246;2023-10-08T09:08:58;1.05;;;0.80;;
22660;SDS011;11497;52.222;21.246;2023-10-08T09:11:40;2.15;;;1.05;;
22660;SDS011;11497;52.222;21.246;2023-10-08T09:14:10;2.85;;;1.10;;
22660;SDS011;11497;52.222;21.246;2023-10-08T09:16:38;2.05;;;1.00;;
22660;SDS011;11497;52.222;21.246;2023-10-08T09:19:06;1.15;;;0.98;;
22660;SDS011;11497;52.222;21.246;2023-10-08T09:21:38;1.70;;;1.00;;
22660;SDS011;11497;52.222;21.246;2023-10-08T09:24:07;1.13;;;0.85;;
22660;SDS011;11497;52.222;21.246;2023-10-08T09:26:38;1.58;;;1.00;;
22660;SDS011;11497;52.222;21.246;2023-10-08T09:29:07;3.38;;;1.50;;
22660;SDS011;11497;52.222;21.246;2023-10-08T09:31:35;3.13;;;1.08;;
22660;SDS011;11497;52.222;21.246;2023-10-08T09:34:03;2.25;;;1.20;;
22660;SDS011;11497;52.222;21.246;2023-10-08T09:36:31;2.35;;;1.60;;
22660;SDS011;11497;52.222;21.246;2023-10-08T09:39:01;2.00;;;1.00;;
22660;SDS011;11497;52.222;21.246;2023-10-08T09:41:31;1.40;;;1.05;;
22660;SDS011;11497;52.222;21.246;2023-10-08T09:44:00;2.05;;;1.40;;
22660;SDS011;11497;52.222;21.246;2023-10-08T09:46:31;1.85;;;1.00;;
22660;SDS011;11497;52.222;21.246;2023-10-08T09:49:05;2.22;;;1.05;;
22660;SDS011;11497;52.222;21.246;2023-10-08T09:51:35;2.05;;;0.85;;
22660;SDS011;11497;52.222;21.246;2023-10-08T09:56:37;4.00;;;1.10;;
22660;SDS011;11497;52.222;21.246;2023-10-08T09:59:07;2.67;;;1.20;;
22660;SDS011;11497;52.222;21.246;2023-10-08T10:01:38;2.40;;;0.98;;
22660;SDS011;11497;52.222;21.246;2023-10-08T10:04:11;3.30;;;0.93;;
22660;SDS011;11497;52.222;21.246;2023-10-08T10:06:41;1.42;;;1.10;;
22660;SDS011;11497;52.222;21.246;2023-10-08T10:09:19;3.80;;;1.00;;
22660;SDS011;11497;52.222;21.246;2023-10-08T10:11:49;1.17;;;0.93;;
22660;SDS011;11497;52.222;21.246;2023-10-08T10:14:17;2.13;;;1.35;;
22660;SDS011;11497;52.222;21.246;2023-10-08T10:16:48;3.58;;;1.10;;
22660;SDS011;11497;52.222;21.246;2023-10-08T10:19:17;3.08;;;1.13;;
22660;SDS011;11497;52.222;21.246;2023-10-08T10:21:45;1.20;;;1.00;;
22660;SDS011;11497;52.222;21.246;2023-10-08T10:24:33;2.25;;;1.27;;
22660;SDS011;11497;52.222;21.246;2023-10-08T10:27:22;6.18;;;1.00;;
22660;SDS011;11497;52.222;21.246;2023-10-08T10:29:49;1.58;;;0.80;;
22660;SDS011;11497;52.222;21.246;2023-10-08T10:32:18;3.50;;;1.10;;
22660;SDS011;11497;52.222;21.246;2023-10-08T10:34:46;1.95;;;1.10;;
22660;SDS011;11497;52.222;21.246;2023-10-08T10:37:14;1.95;;;1.10;;
22660;SDS011;11497;52.222;21.246;2023-10-08T10:39:53;0.73;;;0.73;;
22660;SDS011;11497;52.222;21.246;2023-10-08T10:42:27;2.03;;;1.20;;
22660;SDS011;11497;52.222;21.246;2023-10-08T10:44:55;2.08;;;1.10;;
22660;SDS011;11497;52.222;21.246;2023-10-08T10:47:25;3.20;;;0.90;;
22660;SDS011;11497;52.222;21.246;2023-10-08T10:49:54;2.38;;;1.15;;
22660;SDS011;11497;52.222;21.246;2023-10-08T10:57:27;2.33;;;1.00;;
22660;SDS011;11497;52.222;21.246;2023-10-08T11:00:02;1.55;;;1.00;;
22660;SDS011;11497;52.222;21.246;2023-10-08T11:02:50;1.48;;;1.10;;
22660;SDS011;11497;52.222;21.246;2023-10-08T11:05:18;1.77;;;1.13;;
22660;SDS011;11497;52.222;21.246;2023-10-08T11:07:47;2.75;;;0.88;;
22660;SDS011;11497;52.222;21.246;2023-10-08T11:10:18;4.65;;;1.00;;
22660;SDS011;11497;52.222;21.246;2023-10-08T11:12:50;1.50;;;1.15;;
22660;SDS011;11497;52.222;21.246;2023-10-08T11:15:21;4.03;;;1.02;;
22660;SDS011;11497;52.222;21.246;2023-10-08T11:17:50;2.50;;;0.90;;
22660;SDS011;11497;52.222;21.246;2023-10-08T11:20:26;1.02;;;0.93;;
22660;SDS011;11497;52.222;21.246;2023-10-08T11:25:24;2.65;;;1.00;;
22660;SDS011;11497;52.222;21.246;2023-10-08T11:27:58;3.80;;;1.00;;
22660;SDS011;11497;52.222;21.246;2023-10-08T11:30:29;2.53;;;1.00;;
22660;SDS011;11497;52.222;21.246;2023-10-08T11:32:58;2.53;;;0.98;;
22660;SDS011;11497;52.222;21.246;2023-10-08T11:35:26;2.58;;;0.98;;
22660;SDS011;11497;52.222;21.246;2023-10-08T11:37:58;1.40;;;1.10;;
22660;SDS011;11497;52.222;21.246;2023-10-08T11:40:27;1.92;;;0.80;;
22660;SDS011;11497;52.222;21.246;2023-10-08T11:42:56;1.10;;;1.00;;
22660;SDS011;11497;52.222;21.246;2023-10-08T11:45:26;0.95;;;0.90;;
22660;SDS011;11497;52.222;21.246;2023-10-08T11:47:54;2.47;;;1.08;;
22660;SDS011;11497;52.222;21.246;2023-10-08T11:50:23;1.17;;;1.05;;
22660;SDS011;11497;52.222;21.246;2023-10-08T11:52:58;1.25;;;0.90;;
22660;SDS011;11497;52.222;21.246;2023-10-08T11:55:30;1.92;;;1.25;;
22660;SDS011;11497;52.222;21.246;2023-10-08T11:58:03;7.57;;;2.28;;
22660;SDS011;11497;52.222;21.246;2023-10-08T12:00:41;6.93;;;1.45;;
22660;SDS011;11497;52.222;21.246;2023-10-08T12:03:14;1.85;;;1.00;;
22660;SDS011;11497;52.222;21.246;2023-10-08T12:05:48;1.15;;;1.00;;
22660;SDS011;11497;52.222;21.246;2023-10-08T12:08:19;1.75;;;1.08;;
22660;SDS011;11497;52.222;21.246;2023-10-08T12:10:49;2.05;;;1.17;;
22660;SDS011;11497;52.222;21.246;2023-10-08T12:13:21;2.30;;;1.08;;
22660;SDS011;11497;52.222;21.246;2023-10-08T12:15:53;1.40;;;1.10;;
22660;SDS011;11497;52.222;21.246;2023-10-08T12:18:33;2.50;;;1.00;;
22660;SDS011;11497;52.222;21.246;2023-10-08T12:21:08;0.93;;;0.80;;
22660;SDS011;11497;52.222;21.246;2023-10-08T12:23:38;1.38;;;0.93;;
22660;SDS011;11497;52.222;21.246;2023-10-08T12:26:06;3.20;;;1.10;;
22660;SDS011;11497;52.222;21.246;2023-10-08T12:28:36;3.90;;;1.05;;
22660;SDS011;11497;52.222;21.246;2023-10-08T12:31:04;2.33;;;0.95;;
22660;SDS011;11497;52.222;21.246;2023-10-08T12:33:32;1.33;;;0.93;;
22660;SDS011;11497;52.222;21.246;2023-10-08T12:36:01;2.55;;;1.10;;
22660;SDS011;11497;52.222;21.246;2023-10-08T12:38:39;2.20;;;1.00;;
22660;SDS011;11497;52.222;21.246;2023-10-08T12:41:11;3.85;;;1.00;;
22660;SDS011;11497;52.222;21.246;2023-10-08T12:43:39;3.10;;;1.10;;
22660;SDS011;11497;52.222;21.246;2023-10-08T12:46:09;2.28;;;0.98;;
22660;SDS011;11497;52.222;21.246;2023-10-08T12:48:51;3.63;;;1.30;;
22660;SDS011;11497;52.222;21.246;2023-10-08T12:51:21;2.42;;;1.10;;
22660;SDS011;11497;52.222;21.246;2023-10-08T12:53:51;2.92;;;1.00;;
22660;SDS011;11497;52.222;21.246;2023-10-08T12:56:26;2.38;;;1.00;;
22660;SDS011;11497;52.222;21.246;2023-10-08T12:59:05;2.72;;;1.00;;
22660;SDS011;11497;52.222;21.246;2023-10-08T13:01:34;2.10;;;1.20;;
22660;SDS011;11497;52.222;21.246;2023-10-08T13:04:03;1.73;;;1.27;;
22660;SDS011;11497;52.222;21.246;2023-10-08T13:06:34;2.88;;;1.23;;
22660;SDS011;11497;52.222;21.246;2023-10-08T13:09:05;3.35;;;1.30;;
22660;SDS011;11497;52.222;21.246;2023-10-08T13:11:42;1.90;;;1.23;;
22660;SDS011;11497;52.222;21.246;2023-10-08T13:14:10;1.23;;;1.13;;
22660;SDS011;11497;52.222;21.246;2023-10-08T13:16:39;2.65;;;1.10;;
22660;SDS011;11497;52.222;21.246;2023-10-08T13:19:06;2.28;;;1.10;;
22660;SDS011;11497;52.222;21.246;2023-10-08T13:21:36;1.20;;;1.10;;
22660;SDS011;11497;52.222;21.246;2023-10-08T13:24:04;2.15;;;1.50;;
22660;SDS011;11497;52.222;21.246;2023-10-08T13:26:36;4.93;;;1.92;;
22660;SDS011;11497;52.222;21.246;2023-10-08T13:29:06;3.03;;;1.55;;
22660;SDS011;11497;52.222;21.246;2023-10-08T13:31:36;2.72;;;1.13;;
22660;SDS011;11497;52.222;21.246;2023-10-08T13:34:05;5.35;;;1.95;;
22660;SDS011;11497;52.222;21.246;2023-10-08T13:36:36;2.33;;;1.42;;
22660;SDS011;11497;52.222;21.246;2023-10-08T13:39:05;2.95;;;1.23;;
22660;SDS011;11497;52.222;21.246;2023-10-08T13:41:37;3.85;;;1.30;;
22660;SDS011;11497;52.222;21.246;2023-10-08T13:44:08;2.95;;;1.20;;
22660;SDS011;11497;52.222;21.246;2023-10-08T13:46:39;3.13;;;1.20;;
22660;SDS011;11497;52.222;21.246;2023-10-08T13:49:16;3.33;;;1.30;;
22660;SDS011;11497;52.222;21.246;2023-10-08T13:51:45;1.48;;;1.25;;
22660;SDS011;11497;52.222;21.246;2023-10-08T13:54:23;4.30;;;1.40;;
22660;SDS011;11497;52.222;21.246;2023-10-08T13:59:26;4.13;;;1.77;;
22660;SDS011;11497;52.222;21.246;2023-10-08T14:01:57;4.72;;;1.70;;
22660;SDS011;11497;52.222;21.246;2023-10-08T14:04:28;6.20;;;2.30;;
22660;SDS011;11497;52.222;21.246;2023-10-08T14:07:07;4.80;;;2.30;;
22660;SDS011;11497;52.222;21.246;2023-10-08T14:09:34;6.70;;;1.42;;
22660;SDS011;11497;52.222;21.246;2023-10-08T14:12:05;4.35;;;2.22;;
22660;SDS011;11497;52.222;21.246;2023-10-08T14:14:34;9.90;;;2.13;;
22660;SDS011;11497;52.222;21.246;2023-10-08T14:17:02;5.45;;;1.60;;
22660;SDS011;11497;52.222;21.246;2023-10-08T14:19:35;4.07;;;1.67;;
22660;SDS011;11497;52.222;21.246;2023-10-08T14:22:06;4.05;;;1.20;;
22660;SDS011;11497;52.222;21.246;2023-10-08T14:24:46;3.33;;;1.38;;
22660;SDS011;11497;52.222;21.246;2023-10-08T14:27:14;5.68;;;1.77;;
22660;SDS011;11497;52.222;21.246;2023-10-08T14:29:43;2.70;;;1.50;;
22660;SDS011;11497;52.222;21.246;2023-10-08T14:32:13;1.75;;;1.17;;
22660;SDS011;11497;52.222;21.246;2023-10-08T14:37:45;3.75;;;1.48;;
22660;SDS011;11497;52.222;21.246;2023-10-08T14:40:32;6.10;;;1.08;;
22660;SDS011;11497;52.222;21.246;2023-10-08T14:43:18;4.03;;;1.20;;
22660;SDS011;11497;52.222;21.246;2023-10-08T14:45:49;3.00;;;1.00;;
22660;SDS011;11497;52.222;21.246;2023-10-08T14:48:19;1.40;;;1.10;;
22660;SDS011;11497;52.222;21.246;2023-10-08T14:50:47;4.35;;;1.33;;
22660;SDS011;11497;52.222;21.246;2023-10-08T14:53:15;2.45;;;1.30;;
22660;SDS011;11497;52.222;21.246;2023-10-08T14:55:43;4.57;;;1.60;;
22660;SDS011;11497;52.222;21.246;2023-10-08T14:58:12;5.13;;;3.55;;
22660;SDS011;11497;52.222;21.246;2023-10-08T15:00:41;3.50;;;1.73;;
22660;SDS011;11497;52.222;21.246;2023-10-08T15:03:08;4.28;;;1.40;;
22660;SDS011;11497;52.222;21.246;2023-10-08T15:05:39;1.88;;;1.20;;
22660;SDS011;11497;52.222;21.246;2023-10-08T15:08:07;4.30;;;2.13;;
22660;SDS011;11497;52.222;21.246;2023-10-08T15:10:38;3.47;;;2.40;;
22660;SDS011;11497;52.222;21.246;2023-10-08T15:13:06;3.28;;;1.30;;
22660;SDS011;11497;52.222;21.246;2023-10-08T15:15:34;2.65;;;1.35;;
22660;SDS011;11497;52.222;21.246;2023-10-08T15:18:02;4.82;;;1.67;;
22660;SDS011;11497;52.222;21.246;2023-10-08T15:20:30;2.80;;;1.30;;
22660;SDS011;11497;52.222;21.246;2023-10-08T15:22:59;1.90;;;1.50;;
22660;SDS011;11497;52.222;21.246;2023-10-08T15:25:27;1.52;;;1.10;;
22660;SDS011;11497;52.222;21.246;2023-10-08T15:27:54;3.22;;;1.35;;